createdAt,value
2023-03-08T00:00:14.210Z,3.30
2023-03-08T00:02:38.366Z,2.93
2023-03-08T00:05:01.956Z,2.60
2023-03-08T00:07:25.765Z,2.90
2023-03-08T00:09:49.315Z,2.80
2023-03-08T00:12:12.961Z,2.40
2023-03-08T00:14:37.323Z,2.70
2023-03-08T00:17:02.566Z,3.50
2023-03-08T00:19:26.143Z,2.90
2023-03-08T00:21:49.745Z,3.30
2023-03-08T00:24:16.798Z,2.93
2023-03-08T00:26:40.433Z,3.00
2023-03-08T00:29:04.188Z,3.53
2023-03-08T00:31:27.978Z,3.50
2023-03-08T00:33:55.702Z,3.57
2023-03-08T00:36:21.057Z,3.33
2023-03-08T00:38:45.280Z,3.30
2023-03-08T00:41:11.474Z,2.70
2023-03-08T00:43:35.806Z,3.37
2023-03-08T00:46:02.609Z,3.80
2023-03-08T00:48:26.648Z,4.03
2023-03-08T00:50:51.697Z,4.07
2023-03-08T00:53:15.620Z,3.73
2023-03-08T00:55:39.451Z,4.17
2023-03-08T00:58:03.161Z,4.67
2023-03-08T01:00:27.231Z,5.57
2023-03-08T01:02:51.434Z,5.27
2023-03-08T01:05:15.260Z,4.80
2023-03-08T01:07:41.529Z,4.43
2023-03-08T01:10:05.603Z,5.00
2023-03-08T01:12:29.127Z,4.40
2023-03-08T01:14:52.795Z,4.97
2023-03-08T01:17:16.292Z,4.37
2023-03-08T01:19:39.845Z,5.07
2023-03-08T01:22:03.411Z,4.70
2023-03-08T01:24:28.392Z,4.97
2023-03-08T01:26:55.822Z,4.33
2023-03-08T01:29:19.397Z,5.07
2023-03-08T01:31:42.927Z,5.53
2023-03-08T01:34:06.511Z,5.30
2023-03-08T01:36:30.459Z,5.47
2023-03-08T01:38:54.208Z,5.37
2023-03-08T01:41:22.285Z,5.43
2023-03-08T01:43:47.412Z,5.73
2023-03-08T01:46:25.172Z,5.63
2023-03-08T01:48:57.948Z,6.10
2023-03-08T01:51:29.960Z,5.87
2023-03-08T01:53:55.311Z,6.30
2023-03-08T01:56:21.196Z,6.20
2023-03-08T01:58:49.888Z,6.13
2023-03-08T02:01:13.584Z,6.50
2023-03-08T02:03:37.386Z,6.60
2023-03-08T02:06:01.080Z,6.33
2023-03-08T02:08:25.496Z,5.80
2023-03-08T02:10:50.519Z,6.70
2023-03-08T02:13:15.594Z,6.70
2023-03-08T02:15:40.834Z,7.77
2023-03-08T02:18:04.537Z,7.17
2023-03-08T02:20:32.864Z,6.83
2023-03-08T02:23:13.131Z,7.77
2023-03-08T02:25:38.124Z,7.53
2023-03-08T02:28:02.592Z,7.23
2023-03-08T02:30:31.708Z,7.50
2023-03-08T02:32:55.215Z,7.67
2023-03-08T02:35:19.363Z,7.13
2023-03-08T02:37:42.973Z,7.50
2023-03-08T02:40:11.347Z,7.60
2023-03-08T02:42:35.276Z,6.60
2023-03-08T02:44:58.873Z,7.27
2023-03-08T02:47:22.470Z,6.97
2023-03-08T02:49:46.205Z,7.53
2023-03-08T02:52:09.860Z,7.63
2023-03-08T02:54:33.404Z,8.00
2023-03-08T02:56:59.369Z,8.17
2023-03-08T02:59:24.024Z,8.57
2023-03-08T03:01:48.993Z,8.27
2023-03-08T03:04:12.553Z,7.50
2023-03-08T03:06:36.126Z,8.20
2023-03-08T03:08:59.734Z,8.27
2023-03-08T03:11:24.588Z,8.33
2023-03-08T03:13:56.091Z,8.33
2023-03-08T03:16:21.466Z,8.50
2023-03-08T03:18:45.142Z,9.73
2023-03-08T03:21:11.875Z,9.20
2023-03-08T03:23:35.415Z,7.90
2023-03-08T03:26:05.761Z,7.47
2023-03-08T03:28:30.040Z,8.10
2023-03-08T03:30:57.060Z,9.23
2023-03-08T03:33:20.747Z,8.53
2023-03-08T03:35:44.760Z,7.70
2023-03-08T03:38:08.405Z,9.10
2023-03-08T03:40:32.760Z,9.47
2023-03-08T03:42:58.890Z,9.20
2023-03-08T03:45:22.509Z,9.40
2023-03-08T03:47:48.265Z,9.70
2023-03-08T03:50:13.436Z,10.03
2023-03-08T03:52:49.914Z,10.10
2023-03-08T03:55:13.915Z,9.20
2023-03-08T03:57:37.536Z,9.03
2023-03-08T04:00:01.226Z,9.83
2023-03-08T04:02:25.138Z,9.50
2023-03-08T04:04:55.189Z,9.30
2023-03-08T04:07:22.834Z,8.40
2023-03-08T04:09:52.968Z,9.43
2023-03-08T04:12:16.634Z,8.73
2023-03-08T04:14:41.312Z,9.97
2023-03-08T04:17:07.638Z,10.00
2023-03-08T04:19:37.924Z,10.27
2023-03-08T04:22:04.405Z,10.23
2023-03-08T04:24:34.940Z,10.17
2023-03-08T04:27:02.534Z,10.13
2023-03-08T04:29:26.846Z,10.00
2023-03-08T04:31:50.433Z,10.07
2023-03-08T04:34:16.344Z,9.40
2023-03-08T04:36:43.529Z,9.23
2023-03-08T04:39:08.499Z,9.30
2023-03-08T04:41:32.608Z,9.73
2023-03-08T04:44:04.120Z,9.63
2023-03-08T04:46:33.156Z,9.70
2023-03-08T04:48:57.279Z,9.30
2023-03-08T04:51:26.731Z,10.13
2023-03-08T04:53:52.835Z,10.40
2023-03-08T04:56:19.151Z,9.87
2023-03-08T04:58:44.658Z,9.87
2023-03-08T05:01:14.208Z,10.30
2023-03-08T05:03:39.167Z,10.30
2023-03-08T05:06:02.703Z,10.17
2023-03-08T05:08:26.363Z,10.73
2023-03-08T05:10:50.902Z,11.07
2023-03-08T05:13:15.922Z,10.13
2023-03-08T05:15:40.258Z,10.97
2023-03-08T05:18:03.875Z,10.30
2023-03-08T05:20:27.880Z,11.07
2023-03-08T05:22:58.984Z,10.70
2023-03-08T05:25:31.593Z,11.93
2023-03-08T05:27:56.161Z,10.97
2023-03-08T05:30:22.063Z,11.13
2023-03-08T05:32:47.314Z,10.57
2023-03-08T05:35:11.265Z,11.87
2023-03-08T05:37:35.428Z,10.87
2023-03-08T05:40:00.534Z,11.57
2023-03-08T05:42:24.163Z,12.17
2023-03-08T05:44:47.916Z,12.40
2023-03-08T05:47:17.498Z,11.97
2023-03-08T05:49:41.466Z,12.07
2023-03-08T05:52:06.653Z,12.17
2023-03-08T05:54:31.662Z,12.23
2023-03-08T05:56:59.555Z,12.37
2023-03-08T05:59:23.704Z,12.00
2023-03-08T06:01:47.813Z,12.80
2023-03-08T06:04:31.489Z,12.53
2023-03-08T06:06:55.686Z,12.20
2023-03-08T06:09:23.780Z,11.80
2023-03-08T06:11:48.179Z,12.33
2023-03-08T06:14:13.231Z,11.70
2023-03-08T06:16:37.683Z,13.10
2023-03-08T06:19:03.365Z,11.50
2023-03-08T06:21:30.021Z,11.77
2023-03-08T06:23:57.396Z,11.33
2023-03-08T06:26:21.779Z,12.50
2023-03-08T06:28:45.722Z,12.27
2023-03-08T06:31:13.256Z,13.33
2023-03-08T06:33:37.224Z,13.00
2023-03-08T06:36:04.148Z,11.60
2023-03-08T06:38:31.784Z,11.53
2023-03-08T06:40:57.111Z,11.33
2023-03-08T06:43:21.982Z,11.70
2023-03-08T06:45:45.624Z,11.80
2023-03-08T06:48:09.551Z,11.53
2023-03-08T06:50:34.072Z,13.00
2023-03-08T06:52:57.639Z,11.23
2023-03-08T06:55:38.165Z,10.77
2023-03-08T06:58:01.786Z,10.27
2023-03-08T07:00:25.687Z,10.97
2023-03-08T07:02:49.912Z,8.77
2023-03-08T07:05:13.417Z,7.87
2023-03-08T07:07:38.665Z,8.47
2023-03-08T07:10:02.328Z,8.57
2023-03-08T07:12:27.352Z,9.33
2023-03-08T07:14:53.326Z,9.03
2023-03-08T07:17:16.890Z,8.53
2023-03-08T07:19:40.608Z,8.07
2023-03-08T07:22:04.164Z,10.07
2023-03-08T07:24:27.757Z,8.80
2023-03-08T07:26:52.229Z,8.23
2023-03-08T07:29:17.650Z,8.57
2023-03-08T07:31:41.344Z,9.23
2023-03-08T07:34:04.980Z,9.30
2023-03-08T07:36:28.555Z,8.67
2023-03-08T07:38:52.133Z,9.20
2023-03-08T07:41:15.763Z,9.37
2023-03-08T07:43:39.384Z,9.53
2023-03-08T07:46:18.081Z,8.80
2023-03-08T07:48:41.726Z,9.40
2023-03-08T07:51:08.834Z,8.83
2023-03-08T07:53:32.911Z,8.70
2023-03-08T07:55:58.834Z,8.60
2023-03-08T07:58:22.446Z,8.17
2023-03-08T08:00:46.251Z,8.47
2023-03-08T08:03:11.250Z,8.63
2023-03-08T08:05:37.172Z,8.77
2023-03-08T08:08:01.003Z,8.63
2023-03-08T08:10:24.525Z,9.40
2023-03-08T08:12:48.129Z,9.30
2023-03-08T08:15:12.967Z,9.43
2023-03-08T08:17:36.550Z,9.33
2023-03-08T08:20:01.446Z,7.60
2023-03-08T08:22:25.191Z,9.97
2023-03-08T08:24:48.763Z,10.37
2023-03-08T08:27:14.823Z,9.10
2023-03-08T08:29:39.336Z,8.93
2023-03-08T08:32:05.210Z,9.53
2023-03-08T08:34:28.755Z,8.80
2023-03-08T08:36:53.745Z,8.40
2023-03-08T08:39:17.317Z,8.00
2023-03-08T08:41:40.950Z,7.60
2023-03-08T08:44:04.940Z,8.10
2023-03-08T08:46:29.620Z,7.67
2023-03-08T08:48:53.133Z,7.93
2023-03-08T08:51:16.775Z,7.20
2023-03-08T08:53:41.835Z,7.50
2023-03-08T08:56:26.102Z,7.50
2023-03-08T08:58:52.471Z,7.43
2023-03-08T09:01:18.108Z,7.40
2023-03-08T09:03:41.748Z,7.13
2023-03-08T09:06:06.017Z,7.60
2023-03-08T09:08:29.890Z,7.30
2023-03-08T09:10:54.835Z,6.83
2023-03-08T09:13:18.471Z,6.38
2023-03-08T09:15:42.040Z,5.78
2023-03-08T09:18:05.817Z,5.97
2023-03-08T09:20:29.524Z,5.28
2023-03-08T09:22:53.211Z,5.43
2023-03-08T09:25:19.504Z,5.90
2023-03-08T09:27:44.578Z,6.13
2023-03-08T09:30:12.695Z,5.22
2023-03-08T09:32:37.009Z,5.03
2023-03-08T09:35:00.625Z,4.75
2023-03-08T09:37:24.226Z,4.90
2023-03-08T09:39:51.521Z,4.57
2023-03-08T09:42:24.139Z,3.20
2023-03-08T09:45:13.395Z,4.13
2023-03-08T09:47:46.582Z,4.10
2023-03-08T09:50:33.870Z,3.90
2023-03-08T09:53:01.486Z,3.85
2023-03-08T09:55:30.516Z,3.58
2023-03-08T09:57:57.438Z,3.90
2023-03-08T10:00:28.363Z,3.90
2023-03-08T10:03:07.970Z,3.53
2023-03-08T10:05:41.158Z,3.78
2023-03-08T10:08:14.262Z,3.72
2023-03-08T10:10:50.048Z,4.85
2023-03-08T10:13:32.090Z,4.03
2023-03-08T10:16:07.187Z,5.03
2023-03-08T10:18:37.195Z,5.28
2023-03-08T10:21:03.024Z,4.63
2023-03-08T10:23:30.096Z,3.33
2023-03-08T10:25:53.934Z,3.30
2023-03-08T10:28:21.682Z,3.45
2023-03-08T10:30:49.094Z,3.20
2023-03-08T10:33:19.425Z,3.47
2023-03-08T10:35:58.320Z,3.30
2023-03-08T10:38:21.904Z,3.85
2023-03-08T10:40:45.579Z,3.45
2023-03-08T10:43:18.322Z,4.35
2023-03-08T10:45:41.988Z,3.40
2023-03-08T10:48:07.491Z,3.05
2023-03-08T10:50:36.601Z,3.42
2023-03-08T10:53:12.136Z,4.57
2023-03-08T10:55:44.907Z,4.25
2023-03-08T10:58:33.590Z,4.70
2023-03-08T11:00:59.789Z,3.28
2023-03-08T11:03:25.535Z,1.95
2023-03-08T11:05:59.986Z,4.38
2023-03-08T11:08:28.168Z,3.83
2023-03-08T11:11:12.360Z,4.32
2023-03-08T11:13:39.200Z,4.15
2023-03-08T11:16:27.299Z,4.22
2023-03-08T11:19:04.247Z,4.00
2023-03-08T11:21:41.860Z,3.72
2023-03-08T11:24:23.514Z,4.20
2023-03-08T11:27:03.641Z,4.10
2023-03-08T11:29:42.409Z,3.60
2023-03-08T11:32:22.194Z,3.65
2023-03-08T11:35:11.256Z,3.20
2023-03-08T11:37:44.190Z,3.00
2023-03-08T11:40:22.732Z,2.92
2023-03-08T11:42:56.507Z,2.78
2023-03-08T11:45:27.656Z,3.72
2023-03-08T11:48:25.353Z,3.72
2023-03-08T11:50:54.891Z,3.60
2023-03-08T11:53:35.324Z,5.00
2023-03-08T11:56:38.044Z,4.00
2023-03-08T11:59:08.283Z,3.88
2023-03-08T12:01:39.942Z,4.68
2023-03-08T12:04:11.301Z,3.80
2023-03-08T12:06:40.853Z,3.40
2023-03-08T12:09:14.313Z,3.78
2023-03-08T12:11:43.358Z,3.80
2023-03-08T12:14:17.690Z,3.72
2023-03-08T12:16:49.668Z,3.95
2023-03-08T12:19:25.808Z,3.67
2023-03-08T12:21:58.777Z,3.70
2023-03-08T12:24:39.720Z,3.30
2023-03-08T12:27:07.575Z,3.67
2023-03-08T12:29:36.431Z,3.88
2023-03-08T12:32:01.988Z,3.92
2023-03-08T12:34:31.290Z,3.50
2023-03-08T12:36:55.471Z,3.40
2023-03-08T12:39:32.588Z,3.33
2023-03-08T12:42:15.990Z,3.65
2023-03-08T12:44:40.660Z,3.58
2023-03-08T12:47:20.387Z,3.40
2023-03-08T12:49:47.411Z,3.67
2023-03-08T12:52:30.569Z,3.67
2023-03-08T12:55:05.467Z,3.50
2023-03-08T12:57:32.934Z,4.00
2023-03-08T12:59:59.855Z,4.03
2023-03-08T13:02:30.713Z,4.35
2023-03-08T13:05:15.639Z,3.88
2023-03-08T13:07:50.991Z,4.05
2023-03-08T13:10:24.486Z,3.90
2023-03-08T13:13:36.761Z,4.35
2023-03-08T13:16:21.405Z,4.32
2023-03-08T13:18:47.958Z,3.92
2023-03-08T13:21:27.826Z,5.57
2023-03-08T13:23:57.540Z,4.20
2023-03-08T13:26:50.238Z,3.90
2023-03-08T13:29:17.515Z,3.70
2023-03-08T13:31:42.084Z,4.20
2023-03-08T13:34:05.705Z,3.80
2023-03-08T13:36:31.497Z,4.40
2023-03-08T13:39:04.321Z,3.65
2023-03-08T13:41:41.406Z,3.53
2023-03-08T13:44:06.749Z,4.20
2023-03-08T13:46:31.140Z,4.40
2023-03-08T13:48:54.914Z,4.05
2023-03-08T13:51:19.298Z,4.65
2023-03-08T13:53:45.061Z,4.90
2023-03-08T13:56:09.733Z,5.32
2023-03-08T13:58:38.066Z,4.90
2023-03-08T14:01:04.518Z,5.32
2023-03-08T14:03:31.316Z,4.90
2023-03-08T14:05:54.964Z,4.72
2023-03-08T14:08:24.387Z,5.25
2023-03-08T14:10:50.693Z,5.05
2023-03-08T14:13:21.042Z,4.90
2023-03-08T14:15:51.694Z,5.63
2023-03-08T14:18:23.816Z,5.90
2023-03-08T14:20:47.666Z,6.00
2023-03-08T14:23:24.853Z,6.13
2023-03-08T14:25:58.351Z,6.53
2023-03-08T14:28:43.068Z,7.13
2023-03-08T14:31:30.098Z,6.80
2023-03-08T14:34:02.365Z,7.03
2023-03-08T14:36:26.497Z,7.77
2023-03-08T14:38:51.469Z,7.50
2023-03-08T14:41:16.010Z,7.60
2023-03-08T14:43:40.011Z,7.30
2023-03-08T14:46:06.918Z,7.37
2023-03-08T14:48:33.733Z,7.70
2023-03-08T14:51:00.325Z,6.40
2023-03-08T14:53:34.519Z,7.93
2023-03-08T14:55:58.986Z,7.87
2023-03-08T14:58:27.776Z,8.93
2023-03-08T15:00:52.082Z,8.00
2023-03-08T15:03:15.621Z,9.37
2023-03-08T15:05:40.924Z,8.60
2023-03-08T15:08:04.559Z,9.30
2023-03-08T15:10:33.245Z,8.70
2023-03-08T15:12:57.336Z,8.40
2023-03-08T15:15:21.199Z,9.20
2023-03-08T15:17:44.991Z,9.20
2023-03-08T15:20:11.011Z,8.83
2023-03-08T15:22:41.488Z,8.93
2023-03-08T15:25:13.441Z,8.93
2023-03-08T15:27:37.031Z,10.77
2023-03-08T15:30:00.553Z,10.23
2023-03-08T15:32:24.162Z,11.10
2023-03-08T15:34:47.824Z,11.37
2023-03-08T15:37:15.642Z,12.47
2023-03-08T15:39:40.562Z,8.97
2023-03-08T15:42:04.255Z,8.60
2023-03-08T15:44:27.853Z,8.17
2023-03-08T15:46:52.851Z,11.47
2023-03-08T15:49:16.620Z,12.30
2023-03-08T15:51:40.383Z,16.47
2023-03-08T15:54:04.873Z,15.10
2023-03-08T15:56:29.845Z,11.70
2023-03-08T15:58:53.503Z,11.87
2023-03-08T16:01:17.094Z,11.63
2023-03-08T16:03:40.896Z,11.07
2023-03-08T16:06:10.138Z,10.53
2023-03-08T16:08:35.181Z,10.30
2023-03-08T16:11:03.846Z,11.23
2023-03-08T16:13:28.920Z,11.23
2023-03-08T16:15:52.553Z,10.90
2023-03-08T16:18:16.120Z,12.80
2023-03-08T16:20:41.592Z,11.50
2023-03-08T16:23:05.113Z,11.43
2023-03-08T16:25:28.900Z,12.57
2023-03-08T16:27:53.162Z,11.07
2023-03-08T16:30:18.520Z,12.17
2023-03-08T16:32:42.297Z,18.47
2023-03-08T16:35:06.975Z,13.57
2023-03-08T16:37:30.602Z,15.27
2023-03-08T16:39:57.493Z,13.87
2023-03-08T16:42:22.033Z,13.60
2023-03-08T16:44:52.012Z,12.67
2023-03-08T16:47:17.144Z,13.13
2023-03-08T16:49:40.732Z,12.90
2023-03-08T16:52:05.550Z,17.77
2023-03-08T16:54:29.184Z,15.03
2023-03-08T16:56:52.729Z,15.93
2023-03-08T16:59:17.498Z,13.73
2023-03-08T17:01:42.376Z,12.20
2023-03-08T17:04:07.513Z,11.87
2023-03-08T17:06:33.384Z,12.67
2023-03-08T17:08:57.952Z,12.00
2023-03-08T17:11:23.670Z,11.23
2023-03-08T17:13:51.143Z,10.37
2023-03-08T17:16:14.934Z,10.30
2023-03-08T17:18:38.483Z,10.00
2023-03-08T17:21:03.406Z,11.57
2023-03-08T17:23:26.957Z,10.87
2023-03-08T17:25:51.636Z,10.43
2023-03-08T17:28:15.912Z,10.90
2023-03-08T17:30:41.373Z,11.53
2023-03-08T17:33:05.087Z,10.70
2023-03-08T17:35:28.955Z,11.30
2023-03-08T17:37:54.216Z,12.47
2023-03-08T17:40:18.598Z,12.03
2023-03-08T17:42:42.306Z,14.20
2023-03-08T17:45:07.450Z,12.27
2023-03-08T17:47:30.995Z,13.07
2023-03-08T17:49:54.569Z,13.60
2023-03-08T17:52:18.183Z,16.03
2023-03-08T17:54:43.185Z,16.33
2023-03-08T17:57:06.846Z,16.80
2023-03-08T17:59:30.445Z,21.17
2023-03-08T18:01:53.996Z,16.43
2023-03-08T18:04:19.027Z,19.67
2023-03-08T18:06:44.139Z,24.33
2023-03-08T18:09:10.756Z,23.77
2023-03-08T18:11:37.728Z,32.20
2023-03-08T18:14:01.418Z,19.77
2023-03-08T18:16:26.176Z,18.33
2023-03-08T18:18:50.849Z,17.43
2023-03-08T18:21:14.543Z,14.83
2023-03-08T18:23:38.090Z,16.20
2023-03-08T18:26:02.023Z,16.43
2023-03-08T18:28:27.067Z,16.70
2023-03-08T18:30:50.583Z,17.00
2023-03-08T18:33:14.229Z,17.73
2023-03-08T18:35:37.818Z,20.03
2023-03-08T18:38:02.281Z,20.50
2023-03-08T18:40:27.702Z,18.53
2023-03-08T18:42:51.342Z,18.43
2023-03-08T18:45:18.280Z,17.70
2023-03-08T18:47:42.247Z,17.33
2023-03-08T18:50:08.255Z,16.17
2023-03-08T18:52:32.083Z,16.03
2023-03-08T18:54:55.734Z,16.83
2023-03-08T18:57:19.284Z,15.30
2023-03-08T18:59:42.865Z,16.40
2023-03-08T19:02:11.135Z,15.93
2023-03-08T19:04:39.948Z,15.00
2023-03-08T19:07:03.536Z,14.07
2023-03-08T19:09:27.109Z,15.27
2023-03-08T19:11:50.653Z,13.50
2023-03-08T19:14:14.798Z,13.10
2023-03-08T19:16:38.453Z,12.87
2023-03-08T19:19:06.338Z,17.13
2023-03-08T19:21:32.200Z,13.87
2023-03-08T19:23:57.382Z,13.83
2023-03-08T19:26:41.216Z,13.93
2023-03-08T19:29:08.078Z,14.70
2023-03-08T19:31:31.919Z,16.20
2023-03-08T19:33:56.138Z,16.60
2023-03-08T19:36:21.387Z,16.97
2023-03-08T19:38:45.095Z,17.17
2023-03-08T19:41:10.536Z,15.67
2023-03-08T19:43:34.292Z,16.87
2023-03-08T19:46:00.370Z,15.63
2023-03-08T19:48:24.171Z,15.97
2023-03-08T19:50:48.111Z,16.90
2023-03-08T19:53:13.084Z,15.47
2023-03-08T19:55:36.626Z,17.23
2023-03-08T19:58:00.290Z,17.13
2023-03-08T20:00:24.533Z,17.80
2023-03-08T20:02:48.446Z,17.80
2023-03-08T20:05:12.136Z,18.80
2023-03-08T20:07:35.916Z,18.03
2023-03-08T20:10:15.187Z,17.67
2023-03-08T20:12:39.773Z,16.50
2023-03-08T20:15:03.481Z,18.27
2023-03-08T20:17:28.360Z,16.70
2023-03-08T20:19:52.149Z,17.83
2023-03-08T20:22:15.830Z,17.23
2023-03-08T20:24:39.513Z,16.50
2023-03-08T20:27:05.302Z,16.83
2023-03-08T20:29:28.863Z,16.60
2023-03-08T20:31:52.557Z,16.50
2023-03-08T20:34:16.271Z,17.13
2023-03-08T20:36:39.926Z,16.53
2023-03-08T20:39:03.566Z,16.43
2023-03-08T20:41:28.249Z,16.07
2023-03-08T20:43:55.984Z,16.53
2023-03-08T20:46:23.120Z,15.60
2023-03-08T20:48:47.684Z,15.70
2023-03-08T20:51:15.339Z,16.90
2023-03-08T20:53:39.855Z,16.43
2023-03-08T20:56:07.318Z,16.53
2023-03-08T20:58:31.052Z,17.10
2023-03-08T21:00:56.102Z,17.20
2023-03-08T21:03:19.745Z,17.87
2023-03-08T21:05:43.642Z,18.20
2023-03-08T21:08:07.942Z,17.83
2023-03-08T21:10:32.933Z,18.90
2023-03-08T21:12:56.546Z,19.33
2023-03-08T21:15:20.353Z,18.97
2023-03-08T21:17:45.231Z,18.87
2023-03-08T21:20:11.343Z,19.27
2023-03-08T21:22:34.838Z,18.57
2023-03-08T21:24:58.832Z,18.83
2023-03-08T21:27:22.368Z,18.97
2023-03-08T21:29:46.043Z,17.30
2023-03-08T21:32:09.714Z,16.07
2023-03-08T21:34:34.690Z,16.87
2023-03-08T21:36:58.343Z,15.77
2023-03-08T21:39:22.712Z,15.80
2023-03-08T21:41:50.537Z,14.83
2023-03-08T21:44:16.341Z,16.20
2023-03-08T21:46:41.563Z,15.17
2023-03-08T21:49:05.722Z,14.77
2023-03-08T21:51:30.737Z,15.50
2023-03-08T21:53:54.423Z,13.77
2023-03-08T21:56:19.703Z,14.00
2023-03-08T21:58:43.758Z,13.17
2023-03-08T22:01:08.592Z,14.27
2023-03-08T22:03:33.466Z,14.30
2023-03-08T22:05:57.080Z,14.27
2023-03-08T22:08:22.691Z,14.67
2023-03-08T22:10:46.204Z,13.43
2023-03-08T22:13:09.857Z,14.20
2023-03-08T22:15:33.377Z,14.83
2023-03-08T22:17:57.238Z,13.73
2023-03-08T22:20:21.516Z,14.07
2023-03-08T22:22:45.645Z,14.93
2023-03-08T22:25:11.555Z,13.97
2023-03-08T22:27:35.633Z,15.17
2023-03-08T22:29:59.688Z,14.27
2023-03-08T22:32:23.570Z,14.03
2023-03-08T22:34:47.213Z,14.03
2023-03-08T22:37:10.791Z,13.57
2023-03-08T22:39:34.366Z,14.20
2023-03-08T22:41:59.718Z,13.40
2023-03-08T22:44:23.343Z,13.63
2023-03-08T22:46:46.963Z,13.93
2023-03-08T22:49:12.593Z,13.30
2023-03-08T22:51:36.500Z,12.93
2023-03-08T22:54:03.942Z,13.03
2023-03-08T22:56:30.706Z,14.03
2023-03-08T22:58:56.000Z,13.37
2023-03-08T23:01:22.603Z,12.83
2023-03-08T23:03:49.229Z,13.53
2023-03-08T23:06:12.972Z,12.97
2023-03-08T23:08:36.547Z,13.27
2023-03-08T23:11:00.196Z,12.23
2023-03-08T23:13:33.487Z,12.57
2023-03-08T23:15:59.431Z,12.87
2023-03-08T23:18:22.988Z,13.93
2023-03-08T23:20:46.633Z,13.97
2023-03-08T23:23:10.174Z,13.10
2023-03-08T23:25:34.017Z,12.63
2023-03-08T23:27:57.611Z,12.53
2023-03-08T23:30:21.476Z,12.40
2023-03-08T23:32:46.466Z,12.83
2023-03-08T23:35:11.992Z,12.73
2023-03-08T23:37:35.538Z,12.90
2023-03-08T23:39:59.144Z,12.87
2023-03-08T23:42:22.677Z,13.13
2023-03-08T23:44:46.254Z,11.80
2023-03-08T23:47:09.951Z,13.60
2023-03-08T23:49:36.113Z,12.53
2023-03-08T23:51:59.831Z,11.73
2023-03-08T23:54:23.458Z,11.97
2023-03-08T23:56:47.056Z,13.17
2023-03-08T23:59:16.857Z,12.20
